sensor_id;sensor_type;location;lat;lon;timestamp;pressure;altitude;pressure_sealevel;temperature;humidity
60258;BME280;46115;44.484;11.314;2022-07-11T00:03:45;100279.78;;;23.51;48.80
60258;BME280;46115;44.484;11.314;2022-07-11T00:07:48;100281.75;;;23.33;49.55
60258;BME280;46115;44.484;11.314;2022-07-11T00:11:50;100286.53;;;23.47;48.45
60258;BME280;46115;44.484;11.314;2022-07-11T00:15:54;100289.56;;;23.10;50.17
60258;BME280;46115;44.484;11.314;2022-07-11T00:19:56;100288.19;;;23.40;47.86
60258;BME280;46115;44.484;11.314;2022-07-11T00:23:59;100287.66;;;23.37;47.72
60258;BME280;46115;44.484;11.314;2022-07-11T00:28:02;100284.78;;;23.30;47.45
60258;BME280;46115;44.484;11.314;2022-07-11T00:32:07;100291.97;;;23.21;47.58
60258;BME280;46115;44.484;11.314;2022-07-11T00:36:09;100298.94;;;22.98;47.87
60258;BME280;46115;44.484;11.314;2022-07-11T00:40:12;100293.25;;;23.09;47.69
60258;BME280;46115;44.484;11.314;2022-07-11T00:44:14;100301.47;;;22.99;47.98
60258;BME280;46115;44.484;11.314;2022-07-11T00:48:18;100300.97;;;23.04;48.58
60258;BME280;46115;44.484;11.314;2022-07-11T00:52:20;100304.13;;;22.91;48.12
60258;BME280;46115;44.484;11.314;2022-07-11T00:56:24;100303.25;;;22.73;49.85
60258;BME280;46115;44.484;11.314;2022-07-11T01:00:27;100304.84;;;23.01;48.59
60258;BME280;46115;44.484;11.314;2022-07-11T01:04:31;100309.88;;;22.96;48.28
60258;BME280;46115;44.484;11.314;2022-07-11T01:08:34;100312.66;;;22.87;48.26
60258;BME280;46115;44.484;11.314;2022-07-11T01:12:36;100318.25;;;22.32;51.83
60258;BME280;46115;44.484;11.314;2022-07-11T01:16:39;100322.44;;;22.52;50.33
60258;BME280;46115;44.484;11.314;2022-07-11T01:20:42;100323.75;;;22.84;49.41
60258;BME280;46115;44.484;11.314;2022-07-11T01:24:46;100318.91;;;22.69;48.78
60258;BME280;46115;44.484;11.314;2022-07-11T01:28:49;100287.44;;;21.99;52.12
60258;BME280;46115;44.484;11.314;2022-07-11T01:32:52;100320.47;;;22.36;51.14
60258;BME280;46115;44.484;11.314;2022-07-11T01:36:54;100324.78;;;22.29;51.26
60258;BME280;46115;44.484;11.314;2022-07-11T01:40:58;100326.94;;;22.26;51.39
60258;BME280;46115;44.484;11.314;2022-07-11T01:45:01;100331.41;;;22.35;51.09
60258;BME280;46115;44.484;11.314;2022-07-11T01:49:03;100321.75;;;22.15;50.94
60258;BME280;46115;44.484;11.314;2022-07-11T01:53:06;100324.47;;;22.15;50.47
60258;BME280;46115;44.484;11.314;2022-07-11T01:57:10;100329.94;;;22.23;50.55
60258;BME280;46115;44.484;11.314;2022-07-11T02:01:12;100339.75;;;22.14;51.39
60258;BME280;46115;44.484;11.314;2022-07-11T02:05:15;100347.47;;;22.27;50.89
60258;BME280;46115;44.484;11.314;2022-07-11T02:09:17;100343.06;;;22.08;51.45
60258;BME280;46115;44.484;11.314;2022-07-11T02:13:22;100353.53;;;22.11;50.80
60258;BME280;46115;44.484;11.314;2022-07-11T02:17:25;100356.25;;;22.01;51.27
60258;BME280;46115;44.484;11.314;2022-07-11T02:21:27;100354.09;;;21.87;51.68
60258;BME280;46115;44.484;11.314;2022-07-11T02:25:30;100353.97;;;21.79;52.17
60258;BME280;46115;44.484;11.314;2022-07-11T02:29:37;100349.72;;;21.49;52.46
60258;BME280;46115;44.484;11.314;2022-07-11T02:33:39;100349.31;;;21.44;52.50
60258;BME280;46115;44.484;11.314;2022-07-11T02:37:42;100346.22;;;21.39;52.32
60258;BME280;46115;44.484;11.314;2022-07-11T02:41:45;100356.25;;;21.46;52.27
60258;BME280;46115;44.484;11.314;2022-07-11T02:45:49;100352.31;;;21.41;52.69
60258;BME280;46115;44.484;11.314;2022-07-11T02:49:51;100355.34;;;21.28;53.05
60258;BME280;46115;44.484;11.314;2022-07-11T02:53:53;100346.38;;;21.37;52.76
60258;BME280;46115;44.484;11.314;2022-07-11T02:57:56;100354.06;;;21.13;53.45
60258;BME280;46115;44.484;11.314;2022-07-11T03:02:00;100351.41;;;21.03;53.85
60258;BME280;46115;44.484;11.314;2022-07-11T03:06:05;100354.53;;;20.99;54.03
60258;BME280;46115;44.484;11.314;2022-07-11T03:10:08;100354.28;;;20.73;54.93
60258;BME280;46115;44.484;11.314;2022-07-11T03:14:11;100361.19;;;20.95;54.32
60258;BME280;46115;44.484;11.314;2022-07-11T03:18:15;100357.53;;;20.86;54.35
60258;BME280;46115;44.484;11.314;2022-07-11T03:22:17;100357.78;;;20.93;53.88
60258;BME280;46115;44.484;11.314;2022-07-11T03:26:20;100358.94;;;20.90;53.69
60258;BME280;46115;44.484;11.314;2022-07-11T03:30:22;100361.22;;;20.85;53.87
60258;BME280;46115;44.484;11.314;2022-07-11T03:34:26;100369.25;;;20.85;53.95
60258;BME280;46115;44.484;11.314;2022-07-11T03:38:28;100368.38;;;21.04;53.65
60258;BME280;46115;44.484;11.314;2022-07-11T03:42:31;100374.94;;;20.82;54.38
60258;BME280;46115;44.484;11.314;2022-07-11T03:46:33;100373.63;;;20.96;54.58
60258;BME280;46115;44.484;11.314;2022-07-11T03:50:37;100375.03;;;21.00;54.87
60258;BME280;46115;44.484;11.314;2022-07-11T03:54:39;100382.66;;;21.04;53.91
60258;BME280;46115;44.484;11.314;2022-07-11T03:58:42;100374.09;;;20.81;54.39
60258;BME280;46115;44.484;11.314;2022-07-11T04:02:45;100376.47;;;20.75;54.80
60258;BME280;46115;44.484;11.314;2022-07-11T04:06:49;100388.91;;;20.76;54.65
60258;BME280;46115;44.484;11.314;2022-07-11T04:10:51;100383.84;;;20.82;54.44
60258;BME280;46115;44.484;11.314;2022-07-11T04:14:54;100330.00;;;20.55;54.49
60258;BME280;46115;44.484;11.314;2022-07-11T04:18:56;100384.81;;;20.91;54.54
60258;BME280;46115;44.484;11.314;2022-07-11T04:23:00;100388.44;;;21.09;54.04
60258;BME280;46115;44.484;11.314;2022-07-11T04:27:03;100396.09;;;21.04;54.25
60258;BME280;46115;44.484;11.314;2022-07-11T04:31:05;100396.34;;;21.30;53.91
60258;BME280;46115;44.484;11.314;2022-07-11T04:35:08;100400.66;;;21.60;53.18
60258;BME280;46115;44.484;11.314;2022-07-11T04:39:12;100405.00;;;21.71;52.66
60258;BME280;46115;44.484;11.314;2022-07-11T04:43:15;100414.66;;;21.64;53.14
60258;BME280;46115;44.484;11.314;2022-07-11T04:47:17;100418.38;;;21.90;53.27
60258;BME280;46115;44.484;11.314;2022-07-11T04:51:20;100386.94;;;21.91;53.91
60258;BME280;46115;44.484;11.314;2022-07-11T04:55:24;100418.94;;;22.21;52.95
60258;BME280;46115;44.484;11.314;2022-07-11T04:59:27;100421.50;;;22.23;52.98
60258;BME280;46115;44.484;11.314;2022-07-11T05:03:29;100424.44;;;22.47;52.37
60258;BME280;46115;44.484;11.314;2022-07-11T05:07:33;100432.06;;;22.69;52.00
60258;BME280;46115;44.484;11.314;2022-07-11T05:11:37;100424.41;;;22.92;51.69
60258;BME280;46115;44.484;11.314;2022-07-11T05:15:39;100430.97;;;23.16;51.08
60258;BME280;46115;44.484;11.314;2022-07-11T05:19:41;100430.50;;;23.64;50.60
60258;BME280;46115;44.484;11.314;2022-07-11T05:23:44;100435.38;;;23.60;50.79
60258;BME280;46115;44.484;11.314;2022-07-11T05:27:48;100443.38;;;24.20;49.80
60258;BME280;46115;44.484;11.314;2022-07-11T05:31:50;100457.94;;;24.78;48.17
60258;BME280;46115;44.484;11.314;2022-07-11T05:35:53;100460.00;;;25.25;46.95
60258;BME280;46115;44.484;11.314;2022-07-11T05:39:56;100456.44;;;25.24;46.95
60258;BME280;46115;44.484;11.314;2022-07-11T05:44:00;100459.63;;;24.71;47.36
60258;BME280;46115;44.484;11.314;2022-07-11T05:48:03;100455.56;;;24.91;47.26
60258;BME280;46115;44.484;11.314;2022-07-11T05:52:05;100457.78;;;25.53;46.21
60258;BME280;46115;44.484;11.314;2022-07-11T05:56:08;100461.31;;;25.77;45.57
60258;BME280;46115;44.484;11.314;2022-07-11T06:00:13;100462.88;;;26.50;45.00
60258;BME280;46115;44.484;11.314;2022-07-11T06:04:16;100455.50;;;26.90;43.24
60258;BME280;46115;44.484;11.314;2022-07-11T06:08:18;100456.56;;;26.58;44.63
60258;BME280;46115;44.484;11.314;2022-07-11T06:12:38;100455.16;;;25.92;44.35
60258;BME280;46115;44.484;11.314;2022-07-11T06:16:43;100464.03;;;26.56;42.90
60258;BME280;46115;44.484;11.314;2022-07-11T06:20:46;100477.56;;;26.87;42.15
60258;BME280;46115;44.484;11.314;2022-07-11T06:24:48;100483.31;;;26.61;43.15
60258;BME280;46115;44.484;11.314;2022-07-11T06:28:50;100483.25;;;27.00;43.61
60258;BME280;46115;44.484;11.314;2022-07-11T06:32:54;100481.22;;;25.93;46.21
60258;BME280;46115;44.484;11.314;2022-07-11T06:36:57;100493.28;;;26.29;46.26
60258;BME280;46115;44.484;11.314;2022-07-11T06:41:00;100485.44;;;25.95;48.74
60258;BME280;46115;44.484;11.314;2022-07-11T06:45:03;100467.63;;;26.09;47.71
60258;BME280;46115;44.484;11.314;2022-07-11T06:49:07;100491.31;;;27.31;46.02
60258;BME280;46115;44.484;11.314;2022-07-11T06:53:09;100490.88;;;27.65;46.44
60258;BME280;46115;44.484;11.314;2022-07-11T06:57:12;100495.72;;;27.70;46.72
60258;BME280;46115;44.484;11.314;2022-07-11T07:01:14;100502.88;;;28.15;45.62
60258;BME280;46115;44.484;11.314;2022-07-11T07:05:18;100500.81;;;29.18;43.66
60258;BME280;46115;44.484;11.314;2022-07-11T07:09:21;100509.59;;;29.63;42.33
60258;BME280;46115;44.484;11.314;2022-07-11T07:13:23;100509.81;;;27.88;44.78
60258;BME280;46115;44.484;11.314;2022-07-11T07:17:26;100508.03;;;28.54;43.92
60258;BME280;46115;44.484;11.314;2022-07-11T07:21:30;100507.13;;;28.68;43.36
60258;BME280;46115;44.484;11.314;2022-07-11T07:25:32;100498.63;;;29.35;41.82
60258;BME280;46115;44.484;11.314;2022-07-11T07:29:35;100512.00;;;29.52;42.17
60258;BME280;46115;44.484;11.314;2022-07-11T07:33:37;100514.66;;;29.02;42.36
60258;BME280;46115;44.484;11.314;2022-07-11T07:37:41;100505.50;;;29.80;41.30
60258;BME280;46115;44.484;11.314;2022-07-11T07:41:44;100509.63;;;28.34;45.00
60258;BME280;46115;44.484;11.314;2022-07-11T07:45:46;100503.94;;;30.27;40.78
60258;BME280;46115;44.484;11.314;2022-07-11T07:49:49;100518.47;;;30.89;39.61
60258;BME280;46115;44.484;11.314;2022-07-11T07:53:53;100515.44;;;29.60;42.31
60258;BME280;46115;44.484;11.314;2022-07-11T07:57:55;100511.22;;;28.94;43.65
60258;BME280;46115;44.484;11.314;2022-07-11T08:01:58;100512.25;;;31.34;38.38
60258;BME280;46115;44.484;11.314;2022-07-11T08:06:00;100507.00;;;27.44;44.79
60258;BME280;46115;44.484;11.314;2022-07-11T08:10:06;100511.63;;;28.91;43.03
60258;BME280;46115;44.484;11.314;2022-07-11T08:14:08;100520.84;;;32.69;35.23
60258;BME280;46115;44.484;11.314;2022-07-11T08:18:11;100522.81;;;33.81;32.49
60258;BME280;46115;44.484;11.314;2022-07-11T08:22:13;100511.81;;;34.24;32.37
60258;BME280;46115;44.484;11.314;2022-07-11T08:26:17;100503.84;;;32.53;35.00
60258;BME280;46115;44.484;11.314;2022-07-11T08:30:20;100506.00;;;34.32;31.97
60258;BME280;46115;44.484;11.314;2022-07-11T08:34:22;100514.94;;;33.41;32.71
60258;BME280;46115;44.484;11.314;2022-07-11T08:38:25;100514.91;;;32.34;34.74
60258;BME280;46115;44.484;11.314;2022-07-11T08:42:30;100515.13;;;35.41;31.21
60258;BME280;46115;44.484;11.314;2022-07-11T08:46:33;100512.09;;;37.05;27.33
60258;BME280;46115;44.484;11.314;2022-07-11T08:50:36;100503.31;;;36.91;28.78
60258;BME280;46115;44.484;11.314;2022-07-11T08:54:39;100499.06;;;36.32;28.66
60258;BME280;46115;44.484;11.314;2022-07-11T08:58:45;100512.91;;;39.89;24.25
60258;BME280;46115;44.484;11.314;2022-07-11T09:02:48;100508.31;;;37.90;26.27
60258;BME280;46115;44.484;11.314;2022-07-11T09:06:51;100511.66;;;37.58;25.33
60258;BME280;46115;44.484;11.314;2022-07-11T09:10:53;100499.81;;;40.85;21.60
60258;BME280;46115;44.484;11.314;2022-07-11T09:14:57;100478.66;;;32.45;34.68
60258;BME280;46115;44.484;11.314;2022-07-11T09:19:20;100457.63;;;33.40;33.19
60258;BME280;46115;44.484;11.314;2022-07-11T09:23:22;100474.53;;;33.80;33.46
60258;BME280;46115;44.484;11.314;2022-07-11T09:27:44;100471.06;;;31.62;35.60
60258;BME280;46115;44.484;11.314;2022-07-11T09:31:49;100460.56;;;29.42;38.98
60258;BME280;46115;44.484;11.314;2022-07-11T09:35:53;100458.22;;;31.63;34.98
60258;BME280;46115;44.484;11.314;2022-07-11T09:40:09;100459.00;;;30.71;35.29
60258;BME280;46115;44.484;11.314;2022-07-11T09:44:15;100446.25;;;31.64;33.96
60258;BME280;46115;44.484;11.314;2022-07-11T09:48:19;100455.47;;;31.10;33.83
60258;BME280;46115;44.484;11.314;2022-07-11T09:52:22;100443.81;;;32.27;31.90
60258;BME280;46115;44.484;11.314;2022-07-11T09:56:25;100456.34;;;32.41;32.86
60258;BME280;46115;44.484;11.314;2022-07-11T10:00:28;100455.28;;;30.98;35.59
60258;BME280;46115;44.484;11.314;2022-07-11T10:04:31;100456.13;;;30.31;36.87
60258;BME280;46115;44.484;11.314;2022-07-11T10:08:34;100461.38;;;31.00;35.51
60258;BME280;46115;44.484;11.314;2022-07-11T10:12:36;100453.19;;;31.07;35.17
60258;BME280;46115;44.484;11.314;2022-07-11T10:16:45;100444.75;;;31.81;34.26
60258;BME280;46115;44.484;11.314;2022-07-11T10:20:57;100458.56;;;30.61;35.73
60258;BME280;46115;44.484;11.314;2022-07-11T10:25:06;100463.28;;;31.20;35.34
60258;BME280;46115;44.484;11.314;2022-07-11T10:29:19;100455.13;;;31.33;34.61
60258;BME280;46115;44.484;11.314;2022-07-11T10:33:26;100476.22;;;30.85;34.98
60258;BME280;46115;44.484;11.314;2022-07-11T10:37:30;100465.97;;;30.93;34.69
60258;BME280;46115;44.484;11.314;2022-07-11T10:41:32;100458.53;;;30.06;35.79
60258;BME280;46115;44.484;11.314;2022-07-11T10:45:49;100463.25;;;30.93;34.28
60258;BME280;46115;44.484;11.314;2022-07-11T10:49:52;100442.06;;;31.48;33.87
60258;BME280;46115;44.484;11.314;2022-07-11T10:54:03;100446.06;;;31.72;34.01
60258;BME280;46115;44.484;11.314;2022-07-11T10:58:12;100454.00;;;31.08;34.89
60258;BME280;46115;44.484;11.314;2022-07-11T11:02:18;100446.66;;;30.21;35.52
60258;BME280;46115;44.484;11.314;2022-07-11T11:06:55;100428.88;;;29.90;35.36
60258;BME280;46115;44.484;11.314;2022-07-11T11:11:00;100442.38;;;30.59;34.91
60258;BME280;46115;44.484;11.314;2022-07-11T11:15:31;100446.94;;;30.52;34.98
60258;BME280;46115;44.484;11.314;2022-07-11T11:19:53;100434.84;;;30.61;35.85
60258;BME280;46115;44.484;11.314;2022-07-11T11:24:03;100434.69;;;30.96;34.89
60258;BME280;46115;44.484;11.314;2022-07-11T11:28:19;100434.59;;;30.56;35.70
60258;BME280;46115;44.484;11.314;2022-07-11T11:32:29;100432.34;;;30.86;34.96
60258;BME280;46115;44.484;11.314;2022-07-11T11:36:33;100445.25;;;30.51;35.52
60258;BME280;46115;44.484;11.314;2022-07-11T11:40:35;100445.72;;;29.72;36.62
60258;BME280;46115;44.484;11.314;2022-07-11T11:44:50;100432.44;;;29.91;36.87
60258;BME280;46115;44.484;11.314;2022-07-11T11:48:55;100436.72;;;29.72;37.35
60258;BME280;46115;44.484;11.314;2022-07-11T11:52:58;100434.28;;;30.25;36.80
60258;BME280;46115;44.484;11.314;2022-07-11T11:57:05;100428.13;;;30.09;37.29
60258;BME280;46115;44.484;11.314;2022-07-11T12:01:10;100433.25;;;30.32;36.97
60258;BME280;46115;44.484;11.314;2022-07-11T12:05:12;100437.81;;;30.73;35.92
60258;BME280;46115;44.484;11.314;2022-07-11T12:09:16;100405.38;;;30.37;36.34
60258;BME280;46115;44.484;11.314;2022-07-11T12:13:19;100415.56;;;30.63;37.27
60258;BME280;46115;44.484;11.314;2022-07-11T12:17:27;100415.78;;;30.14;38.84
60258;BME280;46115;44.484;11.314;2022-07-11T12:21:30;100413.41;;;30.58;37.78
60258;BME280;46115;44.484;11.314;2022-07-11T12:25:33;100412.19;;;30.61;36.47
60258;BME280;46115;44.484;11.314;2022-07-11T12:29:40;100412.63;;;30.78;36.15
60258;BME280;46115;44.484;11.314;2022-07-11T12:33:51;100414.47;;;30.57;37.62
60258;BME280;46115;44.484;11.314;2022-07-11T12:37:54;100411.41;;;30.93;37.79
60258;BME280;46115;44.484;11.314;2022-07-11T12:41:58;100384.78;;;30.21;38.19
60258;BME280;46115;44.484;11.314;2022-07-11T12:46:02;100403.56;;;30.03;39.17
60258;BME280;46115;44.484;11.314;2022-07-11T12:50:11;100411.59;;;30.18;39.58
60258;BME280;46115;44.484;11.314;2022-07-11T12:54:15;100406.63;;;30.28;39.79
60258;BME280;46115;44.484;11.314;2022-07-11T12:58:18;100417.75;;;30.33;39.94
60258;BME280;46115;44.484;11.314;2022-07-11T13:02:25;100388.88;;;29.63;40.67
60258;BME280;46115;44.484;11.314;2022-07-11T13:06:30;100400.00;;;29.68;40.41
60258;BME280;46115;44.484;11.314;2022-07-11T13:10:50;100412.50;;;30.38;39.33
60258;BME280;46115;44.484;11.314;2022-07-11T13:14:56;100404.84;;;30.07;40.16
60258;BME280;46115;44.484;11.314;2022-07-11T13:19:11;100409.28;;;30.15;39.70
60258;BME280;46115;44.484;11.314;2022-07-11T13:23:15;100402.25;;;29.92;40.22
60258;BME280;46115;44.484;11.314;2022-07-11T13:27:17;100403.44;;;29.83;39.82
60258;BME280;46115;44.484;11.314;2022-07-11T13:31:19;100402.66;;;29.89;39.70
60258;BME280;46115;44.484;11.314;2022-07-11T13:35:22;100393.09;;;30.06;39.22
60258;BME280;46115;44.484;11.314;2022-07-11T13:39:26;100406.72;;;29.65;39.71
60258;BME280;46115;44.484;11.314;2022-07-11T13:43:29;100391.56;;;29.91;39.34
60258;BME280;46115;44.484;11.314;2022-07-11T13:47:31;100391.06;;;29.80;39.45
60258;BME280;46115;44.484;11.314;2022-07-11T13:51:34;100399.75;;;29.97;39.17
60258;BME280;46115;44.484;11.314;2022-07-11T13:55:38;100390.00;;;29.81;39.55
60258;BME280;46115;44.484;11.314;2022-07-11T13:59:41;100385.97;;;29.64;39.45
60258;BME280;46115;44.484;11.314;2022-07-11T14:03:43;100384.38;;;29.48;39.57
60258;BME280;46115;44.484;11.314;2022-07-11T14:07:47;100386.72;;;29.52;39.54
60258;BME280;46115;44.484;11.314;2022-07-11T14:11:52;100365.25;;;29.70;39.38
60258;BME280;46115;44.484;11.314;2022-07-11T14:15:54;100383.59;;;29.96;39.79
60258;BME280;46115;44.484;11.314;2022-07-11T14:19:56;100386.13;;;29.56;40.09
60258;BME280;46115;44.484;11.314;2022-07-11T14:23:59;100387.09;;;29.48;40.34
60258;BME280;46115;44.484;11.314;2022-07-11T14:28:04;100380.72;;;29.07;40.80
60258;BME280;46115;44.484;11.314;2022-07-11T14:32:07;100403.22;;;29.15;40.55
60258;BME280;46115;44.484;11.314;2022-07-11T14:36:10;100391.50;;;28.94;40.65
60258;BME280;46115;44.484;11.314;2022-07-11T14:40:12;100373.53;;;28.99;40.99
60258;BME280;46115;44.484;11.314;2022-07-11T14:44:16;100391.38;;;29.30;40.74
60258;BME280;46115;44.484;11.314;2022-07-11T14:48:18;100395.50;;;28.98;40.79
60258;BME280;46115;44.484;11.314;2022-07-11T14:52:21;100387.09;;;28.93;40.77
60258;BME280;46115;44.484;11.314;2022-07-11T14:56:23;100386.03;;;29.15;40.65
60258;BME280;46115;44.484;11.314;2022-07-11T15:00:27;100394.72;;;29.32;40.66
60258;BME280;46115;44.484;11.314;2022-07-11T15:04:29;100384.78;;;28.90;41.41
60258;BME280;46115;44.484;11.314;2022-07-11T15:08:32;100375.09;;;28.66;41.74
60258;BME280;46115;44.484;11.314;2022-07-11T15:12:53;100376.47;;;28.98;41.04
60258;BME280;46115;44.484;11.314;2022-07-11T15:16:57;100380.47;;;29.02;40.83
60258;BME280;46115;44.484;11.314;2022-07-11T15:20:59;100382.25;;;28.88;41.25
60258;BME280;46115;44.484;11.314;2022-07-11T15:25:02;100378.72;;;28.94;40.96
60258;BME280;46115;44.484;11.314;2022-07-11T15:29:04;100392.34;;;28.37;42.02
60258;BME280;46115;44.484;11.314;2022-07-11T15:33:10;100372.69;;;28.56;41.73
60258;BME280;46115;44.484;11.314;2022-07-11T15:37:12;100381.44;;;28.51;42.28
60258;BME280;46115;44.484;11.314;2022-07-11T15:41:15;100371.28;;;28.81;42.25
60258;BME280;46115;44.484;11.314;2022-07-11T15:45:18;100371.97;;;28.69;41.80
60258;BME280;46115;44.484;11.314;2022-07-11T15:49:22;100365.44;;;28.42;42.60
60258;BME280;46115;44.484;11.314;2022-07-11T15:53:25;100355.50;;;28.49;42.26
60258;BME280;46115;44.484;11.314;2022-07-11T15:57:28;100365.09;;;28.73;42.11
60258;BME280;46115;44.484;11.314;2022-07-11T16:01:30;100379.56;;;28.73;42.06
60258;BME280;46115;44.484;11.314;2022-07-11T16:05:37;100370.25;;;28.61;42.33
60258;BME280;46115;44.484;11.314;2022-07-11T16:09:39;100365.19;;;28.58;42.37
60258;BME280;46115;44.484;11.314;2022-07-11T16:13:42;100360.78;;;28.57;42.07
60258;BME280;46115;44.484;11.314;2022-07-11T16:17:44;100366.94;;;28.66;41.92
60258;BME280;46115;44.484;11.314;2022-07-11T16:21:48;100373.06;;;28.32;42.40
60258;BME280;46115;44.484;11.314;2022-07-11T16:25:51;100378.19;;;28.63;41.97
60258;BME280;46115;44.484;11.314;2022-07-11T16:29:53;100374.44;;;28.64;41.30
60258;BME280;46115;44.484;11.314;2022-07-11T16:33:56;100383.91;;;28.46;41.89
60258;BME280;46115;44.484;11.314;2022-07-11T16:38:00;100374.41;;;28.21;42.18
60258;BME280;46115;44.484;11.314;2022-07-11T16:42:04;100380.00;;;28.34;42.29
60258;BME280;46115;44.484;11.314;2022-07-11T16:46:24;100380.84;;;28.20;41.90
60258;BME280;46115;44.484;11.314;2022-07-11T16:50:27;100385.97;;;27.93;42.61
60258;BME280;46115;44.484;11.314;2022-07-11T16:54:32;100387.84;;;27.93;42.79
60258;BME280;46115;44.484;11.314;2022-07-11T16:58:35;100390.19;;;27.96;42.49
60258;BME280;46115;44.484;11.314;2022-07-11T17:02:38;100405.63;;;28.10;42.64
60258;BME280;46115;44.484;11.314;2022-07-11T17:06:41;100399.31;;;28.10;42.22
60258;BME280;46115;44.484;11.314;2022-07-11T17:10:45;100349.09;;;27.70;42.46
60258;BME280;46115;44.484;11.314;2022-07-11T17:14:47;100401.44;;;27.93;42.39
60258;BME280;46115;44.484;11.314;2022-07-11T17:18:50;100402.00;;;27.88;42.88
60258;BME280;46115;44.484;11.314;2022-07-11T17:22:52;100375.41;;;27.69;43.41
60258;BME280;46115;44.484;11.314;2022-07-11T17:26:58;100388.34;;;27.82;43.49
60258;BME280;46115;44.484;11.314;2022-07-11T17:31:01;100389.91;;;27.61;44.07
60258;BME280;46115;44.484;11.314;2022-07-11T17:35:04;100392.69;;;27.53;43.74
60258;BME280;46115;44.484;11.314;2022-07-11T17:39:07;100370.34;;;27.51;43.82
60258;BME280;46115;44.484;11.314;2022-07-11T17:43:12;100389.81;;;27.55;43.46
60258;BME280;46115;44.484;11.314;2022-07-11T17:47:14;100386.06;;;27.41;43.69
60258;BME280;46115;44.484;11.314;2022-07-11T17:51:17;100380.13;;;27.38;43.38
60258;BME280;46115;44.484;11.314;2022-07-11T17:55:19;100388.78;;;27.41;43.50
60258;BME280;46115;44.484;11.314;2022-07-11T17:59:24;100398.19;;;27.30;43.61
60258;BME280;46115;44.484;11.314;2022-07-11T18:03:26;100380.88;;;27.17;43.75
60258;BME280;46115;44.484;11.314;2022-07-11T18:07:28;100383.88;;;27.22;43.73
60258;BME280;46115;44.484;11.314;2022-07-11T18:11:31;100399.13;;;27.08;43.90
60258;BME280;46115;44.484;11.314;2022-07-11T18:15:36;100397.72;;;27.12;43.96
60258;BME280;46115;44.484;11.314;2022-07-11T18:19:39;100395.28;;;26.94;44.17
60258;BME280;46115;44.484;11.314;2022-07-11T18:23:41;100400.06;;;26.92;44.32
60258;BME280;46115;44.484;11.314;2022-07-11T18:27:43;100397.13;;;26.79;44.60
60258;BME280;46115;44.484;11.314;2022-07-11T18:31:47;100402.84;;;26.84;44.83
60258;BME280;46115;44.484;11.314;2022-07-11T18:35:50;100400.50;;;26.81;44.87
60258;BME280;46115;44.484;11.314;2022-07-11T18:39:52;100413.84;;;26.60;45.31
60258;BME280;46115;44.484;11.314;2022-07-11T18:44:12;100406.44;;;26.54;45.70
60258;BME280;46115;44.484;11.314;2022-07-11T18:48:16;100418.38;;;26.45;46.06
60258;BME280;46115;44.484;11.314;2022-07-11T18:52:18;100414.88;;;26.28;46.44
60258;BME280;46115;44.484;11.314;2022-07-11T18:56:22;100422.66;;;26.39;46.46
60258;BME280;46115;44.484;11.314;2022-07-11T19:00:24;100426.19;;;26.31;46.95
60258;BME280;46115;44.484;11.314;2022-07-11T19:04:28;100427.81;;;26.18;47.42
60258;BME280;46115;44.484;11.314;2022-07-11T19:08:31;100441.41;;;26.09;47.71
60258;BME280;46115;44.484;11.314;2022-07-11T19:12:35;100440.59;;;25.93;48.25
60258;BME280;46115;44.484;11.314;2022-07-11T19:16:37;100446.53;;;25.88;48.30
60258;BME280;46115;44.484;11.314;2022-07-11T19:20:41;100413.91;;;25.65;48.59
60258;BME280;46115;44.484;11.314;2022-07-11T19:24:45;100452.00;;;25.80;48.55
60258;BME280;46115;44.484;11.314;2022-07-11T19:28:47;100471.63;;;25.82;48.81
60258;BME280;46115;44.484;11.314;2022-07-11T19:32:50;100455.56;;;25.56;49.54
60258;BME280;46115;44.484;11.314;2022-07-11T19:36:54;100475.88;;;25.52;50.02
60258;BME280;46115;44.484;11.314;2022-07-11T19:40:56;100474.50;;;25.56;49.87
60258;BME280;46115;44.484;11.314;2022-07-11T19:44:59;100490.09;;;25.38;50.53
60258;BME280;46115;44.484;11.314;2022-07-11T19:49:02;100493.81;;;25.45;50.41
60258;BME280;46115;44.484;11.314;2022-07-11T22:06:11;100550.03;;;23.82;59.18
60258;BME280;46115;44.484;11.314;2022-07-11T22:10:14;100542.72;;;24.01;58.56
60258;BME280;46115;44.484;11.314;2022-07-11T22:14:16;100553.09;;;24.13;58.05
60258;BME280;46115;44.484;11.314;2022-07-11T22:18:19;100567.13;;;24.17;58.33
60258;BME280;46115;44.484;11.314;2022-07-11T22:22:23;100563.44;;;24.52;57.48
60258;BME280;46115;44.484;11.314;2022-07-11T22:26:25;100560.47;;;24.03;58.48
60258;BME280;46115;44.484;11.314;2022-07-11T22:30:27;100576.97;;;23.74;60.23
60258;BME280;46115;44.484;11.314;2022-07-11T22:34:30;100582.19;;;23.76;59.89
60258;BME280;46115;44.484;11.314;2022-07-11T22:38:34;100578.88;;;24.08;59.24
60258;BME280;46115;44.484;11.314;2022-07-11T22:42:36;100576.66;;;23.42;61.17
60258;BME280;46115;44.484;11.314;2022-07-11T22:46:53;100582.09;;;23.59;60.86
60258;BME280;46115;44.484;11.314;2022-07-11T22:50:55;100575.28;;;23.73;60.39
60258;BME280;46115;44.484;11.314;2022-07-11T22:54:59;100578.94;;;23.54;60.77
60258;BME280;46115;44.484;11.314;2022-07-11T22:59:01;100583.91;;;23.77;60.21
60258;BME280;46115;44.484;11.314;2022-07-11T23:03:04;100586.75;;;23.57;60.75
60258;BME280;46115;44.484;11.314;2022-07-11T23:07:06;100596.66;;;23.67;60.69
60258;BME280;46115;44.484;11.314;2022-07-11T23:11:10;100592.31;;;23.74;60.57
60258;BME280;46115;44.484;11.314;2022-07-11T23:15:13;100594.47;;;23.70;60.63